New York, NY (10035)

11:57 PM EDT on May 29, 2015 (GMT -0400)
South Bronx | | Change Station
CLOSE
Current Station
Personal Weather Station
Location: New York, NY
Elevation: 36 ft
Nearby Weather Stations

Elev 36 ft 40.81 °N, 73.91 °W | Updated 54 minutes ago

Clear
Clear
69.2 °F
Feels Like 69.2 °F
N
0.0
Wind Variable Wind from North
Gusts 0.0 mph

Today
High -- | Low -- °F
--% Chance of Precip.
Yesterday
High -- | Low -- °F
Precip. -- in
5:28 AM 8:18 PM
Waxing Gibbous, 88% visible
Pressure 30.22 in
Visibility 9.0 miles
Clouds Clear
Dew Point 60 °F
Humidity 73%
Rainfall -999.00 in
Snow Depth Not available.
UV 0 out of 12
Pollen 8.70 out of 12
Air Quality Not available.
Flu Activity Sporadic
METAR KNYC 300351Z AUTO 00000KT 9SM CLR 20/16 A3025 RMK AO2 SLP232 T02000161

More Conditions Fewer Conditions

Pressure 30.22 in
Visibility 9.0 miles
Clouds Clear
Dew Point 60 °F
Humidity 73%
Rainfall -999.00 in
Snow Depth Not available.
UV 0 out of 12
Pollen 8.70 out of 12
Air Quality Not available.
Flu Activity Sporadic
METAR KNYC 300351Z AUTO 00000KT 9SM CLR 20/16 A3025 RMK AO2 SLP232 T02000161

More Conditions Fewer Conditions

10-Day Weather Forecast

Almanac

Astronomy

May. 29, 2015 Rise Set
Actual Time
Civil Twilight
Nautical Twilight
Astronomical Twilight
Moon
Length of Visible Light
Length of Day
Tomorrow will be .
, % of the Moon is Illuminated

Today's Extremes

State Highs State Lows

Community

WunderPhotos

Upload Photos

1,825,441 photos uploaded!

WunderBlogs® & News

Nearby

Air Quality

  Air Quality AQ Index Pollutant
Not available.

Snow Depth

Station Depth Elevation

Earthquake Activity

City Distance Mag. Time & Date
Minimum magnitude displayed is 2.5.

Coastal Water Temperatures

Place Temperature

Stations

Nearby Weather Stations

Station Location Temp. Windchill Dew Point Humidity Wind Precip. Elev Updated Type